Latest Weather Observations for Strahan

IDT60801

Issued at 5:35 pm EST Friday 1 August 2014 (issued every 30 minutes, with the page automatically refreshed every 10 minutes)

About weather observations | Map of weather stations | Latest weather observations for TAS | Other Formats
Station Details ID: 097072 Name: STRAHAN AERODROME Lat: -42.16 Lon: 145.29 Height: 21.0 m
Data from the previous 72 hours. | See also: Recent months at Strahan
Date/Time
EST
Temp
°C
App
Temp
°C
Dew
Point
Rel
Hum
%
Delta-T
°C
Wind Press
QNH
hPa
Press
MSL
hPa
Rain
since 9 am
mm
Dir
 
Spd
km/h
Gust
km/h
Spd
kts
Gust
kts
01/05:30pm 3.1 -2.9 1.0 86 0.8 SSE 22 35 12 19 1010.5 - 10.2
01/05:27pm 3.1 -2.9 1.2 87 0.7 SSE 22 33 12 18 1010.5 - 10.2
01/05:00pm 3.5 -6.6 1.5 87 0.8 S 44 67 24 36 1009.8 1009.9 10.2
01/04:41pm 5.4 -5.9 1.5 76 1.5 S 50 72 27 39 1008.7 - 10.2
01/04:40pm 5.7 -4.8 1.4 74 1.7 S 46 59 25 32 1008.6 - 10.2
01/04:30pm 5.7 0.4 2.0 77 1.5 S 19 28 10 15 1008.0 - 10.2
01/04:00pm 5.8 -0.2 1.3 73 1.8 S 22 32 12 17 1007.1 1007.2 10.2
01/03:35pm 4.8 -3.6 1.6 80 1.3 S 35 44 19 24 1006.6 - 10.2
01/03:30pm 5.3 0.5 2.8 84 1.0 SSE 17 24 9 13 1006.3 - 10.2
01/03:00pm 5.1 0.0 2.8 85 0.9 SSE 19 28 10 15 1005.2 1005.3 10.0
01/02:30pm 4.5 -1.3 2.2 85 0.9 SSE 22 33 12 18 1004.2 - 10.0
01/02:00pm 4.5 -1.7 2.2 85 0.9 SSE 24 33 13 18 1003.0 1003.1 9.4
01/01:30pm 4.7 1.1 3.0 89 0.7 SE 11 17 6 9 1002.0 - 9.4
01/01:00pm 3.7 -1.6 1.7 87 0.8 SSE 19 24 10 13 1001.5 1001.5 9.4
01/12:30pm 3.6 -5.8 2.1 90 0.6 SSE 41 59 22 32 1000.2 - 9.4
01/12:17pm 3.8 -3.9 2.2 89 0.6 SSE 32 54 17 29 1000.3 - 9.2
01/12:12pm 3.4 -3.2 2.1 91 0.5 SSE 26 37 14 20 1000.2 - 9.2
01/12:00pm 3.1 -7.3 1.9 92 0.5 SSE 46 70 25 38 999.9 999.9 9.0
01/11:59am 3.1 -7.3 1.8 91 0.5 SSE 46 70 25 38 999.8 - 9.0
01/11:49am 3.2 -4.1 2.2 93 0.4 S 30 54 16 29 999.6 - 8.6
01/11:32am 2.8 -6.3 1.9 94 0.4 S 39 59 21 32 999.3 - 7.8
01/11:31am 2.9 -6.2 2.0 94 0.4 S 39 59 21 32 999.3 - 7.8
01/11:30am 2.9 -6.9 2.0 94 0.4 S 43 59 23 32 999.2 - 7.8
01/11:20am 2.8 -4.2 2.1 95 0.3 SSW 28 46 15 25 998.6 - 6.6
01/11:13am 3.4 -3.1 2.7 95 0.3 SSW 26 35 14 19 998.2 - 5.8
01/11:00am 3.6 -5.3 2.9 95 0.3 SW 39 57 21 31 997.4 997.4 5.0
01/10:50am 3.8 -5.9 2.8 93 0.4 SW 43 59 23 32 997.4 - 3.6
01/10:40am 3.9 -6.1 2.4 90 0.6 SW 44 65 24 35 997.3 - 2.4
01/10:30am 4.3 -5.1 2.5 88 0.7 SW 41 63 22 34 997.0 - 2.0
01/10:00am 5.1 -4.5 3.3 88 0.8 SW 43 61 23 33 996.2 996.2 2.0
01/09:30am 5.2 -3.2 3.5 89 0.7 SW 37 56 20 30 995.6 - 1.8
01/09:01am 5.0 -2.7 2.4 83 1.1 WSW 32 63 17 34 995.0 - 0.0
01/09:00am 5.5 -1.7 3.2 85 1.0 WSW 30 46 16 25 995.0 995.0 22.2
01/08:59am 5.7 -1.0 3.4 85 1.0 WSW 28 46 15 25 995.0 - 22.2
01/08:55am 5.6 -1.2 2.9 83 1.1 WSW 28 43 15 23 994.7 - 22.2
01/08:39am 6.3 -1.0 2.2 75 1.7 WSW 30 50 16 27 994.5 - 22.0
01/08:30am 6.0 -1.0 1.9 75 1.7 WSW 28 43 15 23 994.3 - 22.0
01/08:00am 5.7 -1.5 3.2 84 1.1 W 30 52 16 28 993.7 993.7 22.0
01/07:53am 6.1 -1.2 2.7 79 1.4 WSW 30 52 16 28 993.7 - 21.8
01/07:30am 6.1 -0.6 1.6 73 1.8 WSW 26 39 14 21 993.3 - 21.8
01/07:00am 5.9 -1.5 1.8 75 1.7 WSW 30 41 16 22 992.7 992.7 21.8
01/06:30am 5.8 -1.0 1.0 71 1.9 W 26 43 14 23 991.6 - 21.8
01/06:15am 5.9 -1.0 2.4 78 1.4 W 28 48 15 26 991.3 - 21.6
01/06:00am 5.0 -0.4 1.5 78 1.4 WNW 19 30 10 16 991.0 991.0 21.6
01/05:49am 4.3 -0.3 1.3 81 1.2 W 15 22 8 12 991.0 - 21.6
01/05:30am 3.5 -0.7 1.7 88 0.7 WSW 13 28 7 15 991.5 - 21.4
01/05:22am 3.0 -5.0 0.4 83 1.0 WSW 32 50 17 27 991.4 - 21.2
01/05:20am 3.4 -5.2 0.5 81 1.1 WSW 35 50 19 27 991.5 - 21.0
01/05:00am 6.7 -0.8 1.2 68 2.2 WNW 30 43 16 23 990.9 990.9 20.0
01/04:30am 6.6 -1.3 1.3 69 2.1 WNW 32 46 17 25 990.5 - 20.0
01/04:00am 6.0 -1.7 2.1 76 1.6 NW 32 39 17 21 990.4 990.4 20.0
01/03:30am 5.7 -1.7 1.6 75 1.6 NW 30 39 16 21 990.3 - 20.0
01/03:00am 5.3 -4.0 0.5 71 1.9 NW 39 54 21 29 990.5 990.5 20.0
01/02:30am 5.3 -4.4 2.7 83 1.1 NW 43 56 23 30 990.5 - 20.0
01/02:04am 6.3 -5.8 1.0 69 2.1 NW 54 76 29 41 989.9 - 20.0
01/02:00am 6.8 -5.2 1.5 69 2.2 NW 54 70 29 38 989.9 989.9 20.0
01/01:30am 7.8 -2.7 -1.4 52 3.5 WNW 44 63 24 34 989.2 - 20.0
01/01:00am 7.4 -1.9 0.4 61 2.8 WNW 39 67 21 36 988.8 988.8 20.0
01/12:30am 7.4 -2.9 0.6 62 2.7 W 44 63 24 34 988.9 - 20.0
01/12:02am 7.1 -3.6 0.1 61 2.8 W 46 67 25 36 988.9 - 20.0
01/12:00am 7.0 -3.6 0.5 63 2.6 W 46 61 25 33 988.9 988.9 20.0
 
Date/Time
EST
Temp
°C
App
Temp
°C
Dew
Point
Rel
Hum
%
Delta-T
°C
Wind Press
QNH
hPa
Press
MSL
hPa
Rain
since 9 am
mm
Dir
 
Spd
km/h
Gust
km/h
Spd
kts
Gust
kts
31/11:30pm 6.0 -3.5 1.7 74 1.7 W 41 59 22 32 988.5 - 20.0
31/11:27pm 5.8 -3.7 1.7 75 1.6 W 41 61 22 33 988.5 - 20.0
31/11:11pm 5.1 -6.1 1.9 80 1.3 W 50 78 27 42 988.7 - 19.8
31/11:00pm 6.7 -3.8 -1.2 57 3.0 W 44 69 24 37 988.4 988.4 19.6
31/10:30pm 5.0 -5.1 1.7 79 1.3 W 44 67 24 36 988.2 - 19.6
31/10:03pm 5.0 -7.1 1.1 76 1.5 W 54 72 29 39 987.9 - 19.4
31/10:00pm 5.2 -7.3 1.0 74 1.7 W 56 72 30 39 987.7 987.7 19.4
31/09:36pm 5.2 -3.6 1.3 76 1.5 WNW 37 56 20 30 987.1 - 19.4
31/09:35pm 5.2 -4.0 1.5 77 1.5 WNW 39 56 21 30 987.1 - 19.4
31/09:30pm 5.6 -6.9 1.7 76 1.6 W 57 80 31 43 987.0 - 19.4
31/09:27pm 5.5 -6.9 1.4 75 1.6 W 56 80 30 43 986.8 - 19.4
31/09:12pm 4.8 -5.4 3.0 88 0.7 W 46 69 25 37 986.9 - 19.4
31/09:00pm 6.0 -5.3 3.5 84 1.1 NW 52 91 28 49 985.9 985.9 19.0
31/08:57pm 6.6 -4.7 3.2 79 1.4 WNW 52 91 28 49 985.8 - 18.6
31/08:38pm 7.3 -3.8 2.2 70 2.1 NW 50 69 27 37 985.8 - 18.4
31/08:30pm 7.5 -4.2 1.1 64 2.6 WNW 52 67 28 36 985.7 - 18.4
31/08:00pm 7.4 -5.2 1.3 65 2.5 WNW 57 76 31 41 985.5 985.5 18.4
31/07:41pm 6.7 -5.6 1.8 71 2.0 WNW 56 74 30 40 985.2 - 18.4
31/07:30pm 5.8 -5.3 2.3 78 1.4 WNW 50 76 27 41 984.8 - 18.4
31/07:18pm 5.6 -7.2 2.4 80 1.3 WNW 59 87 32 47 985.3 - 18.0
31/07:00pm 7.1 -6.1 2.2 71 2.0 WNW 61 89 33 48 984.5 984.5 17.8
31/06:30pm 8.3 -5.4 1.7 63 2.7 NW 63 85 34 46 983.9 - 17.8
31/06:16pm 8.2 -6.8 1.6 63 2.7 WNW 70 89 38 48 983.7 - 17.8
31/06:15pm 8.1 -8.2 1.0 61 2.9 WNW 76 89 41 48 983.6 - 17.8
31/06:00pm 6.7 -5.6 2.2 73 1.9 WNW 56 78 30 42 983.9 983.9 17.8
31/05:41pm 7.5 -6.0 0.3 60 2.8 WNW 61 83 33 45 983.3 - 17.8
31/05:30pm 7.0 -8.3 2.5 73 1.9 WNW 72 119 39 64 983.5 - 17.8
31/05:27pm 7.0 -8.9 3.3 77 1.6 WNW 76 119 41 64 983.5 - 17.8
31/05:22pm 7.7 -9.0 3.2 73 1.9 WNW 80 119 43 64 983.0 - 17.8
31/05:21pm 8.4 -4.1 2.2 65 2.6 NW 57 119 31 64 983.0 - 17.8
31/05:00pm 8.5 -4.0 2.3 65 2.6 NW 57 82 31 44 982.6 982.6 17.8
31/04:30pm 8.1 -4.3 2.4 67 2.4 NW 57 82 31 44 982.8 - 17.6
31/04:00pm 7.3 -7.2 3.5 77 1.6 NW 69 93 37 50 982.4 982.4 17.6
31/03:40pm 7.9 -5.3 4.3 78 1.6 NW 63 82 34 44 982.0 - 17.6
31/03:37pm 7.8 -6.7 3.8 76 1.7 NW 69 82 37 44 981.8 - 17.6
31/03:34pm 7.5 -2.0 5.1 85 1.1 NNW 44 63 24 34 981.9 - 17.6
31/03:30pm 7.2 -2.7 4.9 85 1.0 NW 46 70 25 38 982.0 - 17.6
31/03:16pm 6.5 -4.2 4.5 87 0.9 NW 50 87 27 47 981.8 - 17.6
31/03:11pm 6.4 -3.5 4.6 88 0.8 NW 46 67 25 36 981.9 - 17.2
31/03:03pm 6.4 -3.3 5.8 96 0.3 WNW 46 54 25 29 982.1 - 17.2
31/03:01pm 6.2 -0.1 5.6 96 0.3 NNW 28 50 15 27 981.9 - 17.0
31/03:00pm 6.1 0.1 5.5 96 0.3 NNW 26 41 14 22 981.7 981.7 17.0
31/02:40pm 5.8 -1.6 4.9 94 0.4 N 33 46 18 25 982.0 - 16.0
31/02:33pm 5.8 -0.7 4.8 93 0.4 N 28 46 15 25 982.2 - 15.6
31/02:30pm 5.7 0.0 4.7 93 0.4 N 24 39 13 21 982.2 - 15.4
31/02:00pm 5.5 0.6 4.9 96 0.3 N 20 30 11 16 982.7 982.7 14.8
31/01:30pm 4.8 -0.2 4.4 97 0.2 NNE 20 35 11 19 983.8 - 14.8
31/01:24pm 4.8 -0.2 4.4 97 0.2 NNE 20 32 11 17 983.7 - 14.8
31/01:14pm 4.7 -0.7 4.3 97 0.2 NE 22 35 12 19 982.9 - 14.8
31/01:00pm 4.8 1.1 4.4 97 0.2 NNE 13 19 7 10 983.6 983.6 14.4
31/12:33pm 4.6 0.9 4.2 97 0.2 E 13 17 7 9 983.7 - 13.8
31/12:30pm 4.5 0.7 3.9 96 0.3 E 13 17 7 9 984.0 - 13.6
31/12:07pm 4.6 0.8 3.9 95 0.3 SSE 13 17 7 9 985.4 - 12.8
31/12:00pm 4.6 0.0 3.9 95 0.3 S 17 24 9 13 985.4 985.4 12.4
31/11:37am 5.3 0.5 4.9 97 0.2 SSW 19 28 10 15 984.5 - 12.0
31/11:30am 5.3 0.0 4.9 97 0.2 SSW 22 28 12 15 984.6 - 11.8
31/11:04am 5.6 1.3 5.2 97 0.2 S 17 24 9 13 985.1 - 9.4
31/11:00am 5.6 1.3 5.2 97 0.2 S 17 24 9 13 984.7 984.7 9.2
31/10:50am 5.8 1.5 5.4 97 0.2 S 17 26 9 14 984.2 - 9.0
31/10:37am 5.9 -0.1 5.5 97 0.2 SSW 26 39 14 21 984.2 - 8.8
31/10:30am 5.8 -0.9 5.4 97 0.2 SSW 30 39 16 21 984.2 - 8.4
31/10:17am 6.3 -1.3 5.9 97 0.2 SW 35 50 19 27 984.7 - 7.2
31/10:00am 6.6 3.3 6.2 97 0.2 SW 13 20 7 11 984.7 984.7 3.8
31/09:36am 6.9 5.7 6.5 97 0.2 ESE 2 9 1 5 984.6 - 0.4
31/09:32am 6.9 6.1 6.5 97 0.2 CALM 0 0 0 0 984.7 - 0.2
31/09:30am 6.8 6.0 6.4 97 0.2 CALM 0 0 0 0 984.8 - 0.2
31/09:03am 6.6 4.4 6.2 97 0.2 NNE 7 11 4 6 985.7 - 0.0
31/09:00am 6.6 4.0 6.2 97 0.2 NNE 9 11 5 6 985.8 985.8 41.4
31/08:34am 6.6 4.6 6.2 97 0.2 NE 6 9 3 5 986.5 - 40.2
31/08:30am 6.6 4.6 6.2 97 0.2 NE 6 9 3 5 986.6 - 40.0
31/08:15am 6.6 3.6 6.2 97 0.2 NNE 11 15 6 8 987.0 - 39.2
31/08:00am 6.7 3.8 6.3 97 0.2 NNE 11 15 6 8 987.1 987.1 38.8
31/07:30am 6.8 4.2 5.9 94 0.4 NNW 9 13 5 7 988.3 - 37.6
31/07:00am 7.0 2.9 6.3 95 0.3 NW 17 26 9 14 989.1 989.1 37.2
31/06:30am 6.9 3.6 6.5 97 0.2 NNW 13 19 7 10 989.9 - 35.8
31/06:29am 6.9 3.6 6.5 97 0.2 NNW 13 17 7 9 989.8 - 35.8
31/06:00am 6.9 4.0 6.5 97 0.2 N 11 15 6 8 989.5 989.5 35.6
31/05:37am 6.9 4.4 6.5 97 0.2 N 9 11 5 6 990.0 - 35.6
31/05:30am 6.9 4.4 6.5 97 0.2 NNW 9 11 5 6 990.1 - 35.6
31/05:19am 7.0 3.7 6.6 97 0.2 NW 13 24 7 13 990.5 - 35.4
31/05:00am 7.0 2.0 6.6 97 0.2 W 22 30 12 16 991.2 991.2 34.2
31/04:30am 7.0 5.1 6.6 97 0.2 NNW 6 11 3 6 990.9 - 32.6
31/04:00am 7.0 3.7 6.4 96 0.3 WSW 13 20 7 11 991.5 991.5 32.2
31/03:57am 7.0 3.4 6.6 97 0.2 WSW 15 20 8 11 991.6 - 32.2
31/03:30am 7.0 0.9 6.6 97 0.2 WSW 28 44 15 24 991.5 - 31.8
31/03:27am 7.0 0.1 6.6 97 0.2 WSW 32 50 17 27 991.8 - 31.8
31/03:23am 6.9 -0.6 6.5 97 0.2 WSW 35 50 19 27 991.6 - 31.6
31/03:09am 7.4 -2.1 6.8 96 0.3 SW 46 65 25 35 991.4 - 29.4
31/03:04am 7.9 -1.5 7.1 95 0.4 WSW 46 65 25 35 990.2 - 27.6
31/03:02am 8.3 -0.7 7.2 93 0.5 WSW 44 61 24 33 990.3 - 26.8
31/03:01am 8.8 0.1 7.7 93 0.5 WSW 43 61 23 33 990.4 - 26.8
31/03:00am 9.4 1.6 8.3 93 0.5 W 39 54 21 29 990.3 990.3 26.2
31/02:49am 9.0 -1.7 8.1 94 0.4 WNW 54 72 29 39 990.2 - 25.4
31/02:48am 9.0 -2.1 8.2 95 0.4 WNW 56 72 30 39 990.3 - 25.4
31/02:43am 9.7 3.3 9.2 97 0.2 NW 33 57 18 31 990.5 - 24.4
31/02:32am 10.2 4.0 9.4 95 0.4 WNW 32 48 17 26 990.9 - 21.6
31/02:30am 10.2 3.8 9.3 94 0.4 WNW 33 48 18 26 991.0 - 20.8
31/02:22am 10.4 4.5 9.0 91 0.7 WNW 30 39 16 21 990.6 - 18.6
31/02:00am 10.6 2.9 8.7 88 0.9 WNW 39 57 21 31 991.4 991.4 18.6
31/01:50am 10.5 1.5 8.8 89 0.8 WNW 46 67 25 36 991.7 - 18.6
31/01:48am 10.4 0.9 8.5 88 0.9 WNW 48 67 26 36 991.8 - 18.6
31/01:30am 10.0 1.2 9.5 97 0.2 WNW 46 67 25 36 992.1 - 18.6
31/01:16am 9.8 0.5 9.3 97 0.2 WNW 48 69 26 37 992.2 - 17.8
31/01:00am 9.5 -2.6 7.9 90 0.8 WNW 61 89 33 48 992.3 992.3 14.8
31/12:55am 10.3 -1.9 7.2 81 1.5 WNW 61 89 33 48 992.2 - 14.0
31/12:54am 10.8 -0.7 6.9 77 1.8 WNW 57 82 31 44 992.4 - 14.0
31/12:30am 12.2 1.5 9.6 84 1.3 NNW 56 82 30 44 991.4 - 14.0
31/12:28am 12.2 1.5 9.4 83 1.4 NNW 56 82 30 44 991.4 - 14.0
31/12:00am 11.6 1.2 9.3 86 1.2 NNW 54 74 29 40 991.6 991.6 14.0
 
Date/Time
EST
Temp
°C
App
Temp
°C
Dew
Point
Rel
Hum
%
Delta-T
°C
Wind Press
QNH
hPa
Press
MSL
hPa
Rain
since 9 am
mm
Dir
 
Spd
km/h
Gust
km/h
Spd
kts
Gust
kts
30/11:40pm 11.9 2.3 9.3 84 1.3 NNW 50 69 27 37 992.4 - 13.8
30/11:30pm 12.1 1.6 8.8 80 1.6 NNW 54 76 29 41 992.6 - 13.8
30/11:27pm 12.0 1.5 8.7 80 1.6 NNW 54 72 29 39 992.6 - 13.8
30/11:24pm 12.0 1.1 8.7 80 1.6 NNW 56 72 30 39 992.7 - 13.8
30/11:00pm 11.6 1.0 8.6 82 1.5 NNW 54 76 29 41 993.0 993.0 13.8
30/10:50pm 11.4 1.6 8.8 84 1.3 NNW 50 69 27 37 993.2 - 13.8
30/10:31pm 11.2 0.1 8.9 86 1.1 NW 57 76 31 41 993.7 - 13.8
30/10:30pm 11.2 0.1 8.9 86 1.1 NW 57 76 31 41 993.6 - 13.8
30/10:00pm 10.9 0.5 9.2 89 0.9 NNW 54 78 29 42 993.8 993.8 12.4
30/09:51pm 11.5 1.0 8.7 83 1.4 NNW 54 74 29 40 993.8 - 12.0
30/09:49pm 11.9 1.7 8.4 79 1.7 NNW 52 74 28 40 993.7 - 12.0
30/09:35pm 12.1 3.0 8.4 78 1.8 NNW 46 65 25 35 994.1 - 12.0
30/09:34pm 12.1 3.0 8.4 78 1.8 NNW 46 65 25 35 994.2 - 12.0
30/09:30pm 12.2 3.1 8.5 78 1.8 NNW 46 65 25 35 994.2 - 12.0
30/09:19pm 12.0 2.9 8.3 78 1.8 NNW 46 65 25 35 994.3 - 12.0
30/09:14pm 12.1 2.7 8.6 79 1.7 NNW 48 65 26 35 994.5 - 12.0
30/09:00pm 12.2 1.7 7.5 73 2.3 NW 52 72 28 39 994.6 994.6 12.0
30/08:42pm 12.1 1.5 8.4 78 1.8 NW 54 74 29 40 994.9 - 12.0
30/08:30pm 11.8 0.8 8.5 80 1.6 NNW 56 76 30 41 994.6 - 12.0
30/08:19pm 11.8 -0.1 8.6 81 1.6 NNW 61 87 33 47 994.7 - 12.0
30/08:00pm 12.5 0.6 7.0 69 2.7 NNW 59 93 32 50 994.7 994.7 12.0
30/07:30pm 12.4 1.3 8.7 78 1.8 NW 57 80 31 43 995.1 - 11.8
30/07:14pm 12.0 1.1 8.8 81 1.6 NNW 56 80 30 43 994.9 - 11.8
30/07:00pm 12.0 0.7 9.4 84 1.3 NNW 59 93 32 50 994.7 994.7 11.8
30/06:58pm 11.9 0.5 9.1 83 1.4 NNW 59 93 32 50 994.6 - 11.8
30/06:46pm 11.7 2.1 9.4 86 1.2 NNW 50 69 27 37 994.8 - 11.8
30/06:44pm 11.7 2.1 9.4 86 1.2 NNW 50 69 27 37 994.7 - 11.8
30/06:30pm 11.5 2.7 9.6 88 1.0 NNW 46 65 25 35 994.8 - 11.8
30/06:07pm 11.2 2.8 9.8 91 0.7 NNW 44 63 24 34 995.4 - 11.8
30/06:00pm 11.7 3.2 9.3 85 1.2 NW 44 61 24 33 995.6 995.6 11.6
30/05:31pm 12.0 3.2 9.4 84 1.3 NW 46 65 25 35 996.1 - 11.6
30/05:30pm 12.0 2.7 9.2 83 1.4 NW 48 65 26 35 996.1 - 11.6
30/05:21pm 11.7 2.7 8.9 83 1.4 NW 46 67 25 36 996.1 - 11.6
30/05:01pm 11.7 2.8 9.1 84 1.3 NW 46 76 25 41 996.3 - 11.6
30/05:00pm 11.8 3.2 8.8 82 1.5 NW 44 76 24 41 996.3 996.3 11.4
30/04:54pm 11.9 2.9 8.7 81 1.6 NW 46 69 25 37 996.4 - 11.2
30/04:41pm 11.5 3.0 8.7 83 1.4 NW 43 63 23 34 996.6 - 11.2
30/04:30pm 11.8 0.7 8.1 78 1.8 NW 56 76 30 41 996.6 - 11.2
30/04:00pm 11.5 1.1 9.1 85 1.2 NW 54 74 29 40 996.4 996.4 11.2
30/03:30pm 10.9 1.5 10.3 96 0.3 NW 50 69 27 37 996.1 - 11.0
30/03:05pm 11.2 3.5 10.1 93 0.6 NW 41 59 22 32 996.4 - 10.4
30/03:00pm 11.0 2.9 10.1 94 0.5 NW 43 59 23 32 996.4 996.4 10.4
30/02:59pm 10.9 2.8 10.1 95 0.4 NW 43 59 23 32 996.4 - 10.4
30/02:37pm 10.6 1.6 10.1 97 0.3 WNW 48 67 26 36 996.5 - 9.8
30/02:34pm 10.8 2.2 10.3 97 0.3 NW 46 63 25 34 996.5 - 8.4
30/02:30pm 10.9 1.9 10.1 95 0.4 NW 48 67 26 36 996.6 - 6.8
30/02:21pm 11.6 3.2 9.7 88 1.0 NNW 44 67 24 36 996.0 - 2.6
30/02:19pm 11.8 3.4 9.5 86 1.2 NNW 44 59 24 32 996.1 - 2.6
30/02:00pm 12.0 3.0 8.8 81 1.6 NW 46 65 25 35 996.7 996.7 2.6
30/01:35pm 12.1 3.0 8.4 78 1.8 NW 46 67 25 36 996.8 - 2.6
30/01:30pm 12.1 3.4 8.6 79 1.7 NW 44 61 24 33 996.9 - 2.6
30/01:12pm 11.9 2.8 8.4 79 1.7 NW 46 65 25 35 997.3 - 2.6
30/01:00pm 11.9 2.4 8.4 79 1.7 NW 48 65 26 35 997.6 997.6 2.6
30/12:30pm 11.9 0.7 8.4 79 1.7 NW 57 80 31 43 997.8 - 2.6
30/12:12pm 11.7 0.7 8.6 81 1.5 NW 56 74 30 40 997.9 - 2.6
30/12:00pm 11.4 0.8 8.3 81 1.5 NW 54 80 29 43 998.1 998.1 2.6
30/11:30am 10.8 0.4 9.4 91 0.7 NW 54 74 29 40 998.3 - 2.4
30/11:00am 10.7 1.8 9.1 90 0.8 NW 46 65 25 35 999.0 999.0 1.8
30/10:54am 11.0 2.4 8.9 87 1.0 NW 44 63 24 34 999.0 - 1.6
30/10:49am 11.0 2.2 8.2 83 1.4 NW 44 61 24 33 999.1 - 1.4
30/10:30am 10.8 2.2 8.7 87 1.0 NW 44 69 24 37 999.4 - 1.4
30/10:02am 10.9 2.3 9.0 88 0.9 NW 44 63 24 34 999.4 - 0.8
30/10:00am 10.8 1.9 9.1 89 0.9 NW 46 63 25 34 999.5 999.6 0.8
30/09:49am 10.4 1.4 9.0 91 0.7 NW 46 65 25 35 999.5 - 0.6
30/09:38am 11.2 0.9 8.1 81 1.5 NW 52 67 28 36 999.4 - 0.0
30/09:30am 11.4 2.2 8.1 80 1.6 NW 46 67 25 36 999.5 - 0.0
30/09:05am 10.8 1.9 7.7 81 1.5 NW 44 63 24 34 999.5 - 0.0
30/09:04am 10.8 1.5 7.5 80 1.6 NW 46 63 25 34 999.5 - 0.0
30/09:01am 10.7 1.7 7.4 80 1.6 NW 44 63 24 34 999.4 - 0.0
30/09:00am 10.8 1.5 7.5 80 1.6 NW 46 63 25 34 999.4 999.5 7.2
30/08:31am 9.5 -0.2 7.6 88 0.9 WNW 48 69 26 37 999.8 - 7.2
30/08:30am 9.8 0.2 7.9 88 0.9 WNW 48 65 26 35 999.9 - 7.2
30/08:15am 10.5 1.1 7.2 80 1.6 WNW 46 67 25 36 999.7 - 6.6
30/08:05am 10.8 0.0 6.0 72 2.2 WNW 52 76 28 41 999.6 - 6.6
30/08:00am 10.6 -0.5 6.2 74 2.1 WNW 54 76 29 41 999.5 999.6 6.6
30/07:49am 10.1 -1.2 7.3 83 1.3 NW 56 74 30 40 999.2 - 6.6
30/07:46am 10.0 -1.4 7.6 85 1.1 NW 57 74 31 40 999.2 - 6.6
30/07:30am 10.5 2.5 7.4 81 1.5 NW 39 57 21 31 999.2 - 6.4
30/07:00am 10.1 1.1 7.2 82 1.4 NW 44 65 24 35 999.3 999.3 6.4
30/06:58am 10.5 1.4 6.8 78 1.7 NW 44 65 24 35 999.3 - 6.2
30/06:37am 10.5 0.2 4.9 68 2.5 NW 48 67 26 36 999.0 - 6.2
30/06:30am 10.4 -0.6 5.2 70 2.4 NW 52 67 28 36 998.9 - 6.2
30/06:06am 10.0 1.0 6.5 79 1.6 NW 43 65 23 35 999.0 - 6.2
30/06:03am 10.6 1.5 6.0 73 2.1 NW 43 65 23 35 998.9 - 6.2
30/06:00am 10.6 1.4 5.6 71 2.3 NW 43 59 23 32 998.9 998.9 6.2
30/05:43am 10.1 1.2 5.1 71 2.3 NW 41 65 22 35 999.0 - 6.2
30/05:30am 9.5 1.9 6.0 79 1.6 WNW 35 56 19 30 999.0 - 6.2
30/05:04am 10.5 3.1 4.2 65 2.8 WNW 32 50 17 27 999.4 - 5.8
30/05:00am 10.5 3.2 4.6 67 2.7 WNW 32 44 17 24 999.5 999.6 5.8
30/04:57am 10.5 3.7 5.1 69 2.5 WNW 30 44 16 24 999.6 - 5.8
30/04:30am 10.0 1.6 3.7 65 2.8 W 37 56 20 30 999.9 - 5.8
30/04:00am 10.1 0.8 2.7 60 3.2 W 41 57 22 31 999.9 1000.0 5.8
30/03:54am 9.9 0.2 3.0 62 3.0 W 43 61 23 33 999.9 - 5.8
30/03:30am 10.0 0.1 2.6 60 3.2 W 44 59 24 32 1000.0 - 5.8
30/03:07am 10.1 -1.0 2.7 60 3.2 W 50 70 27 38 1000.1 - 5.8
30/03:04am 10.1 -1.4 2.5 59 3.2 W 52 70 28 38 1000.1 - 5.8
30/03:00am 10.1 -0.8 3.6 64 2.9 W 50 67 27 36 1000.1 1000.2 5.8
30/02:54am 10.2 0.6 4.4 67 2.6 W 44 63 24 34 1000.1 - 5.8
30/02:30am 10.4 -1.2 3.9 64 2.9 W 54 72 29 39 999.8 - 5.8
30/02:00am 10.6 -0.7 3.6 62 3.1 W 52 76 28 41 999.4 999.5 5.8
30/01:30am 10.6 -1.6 3.6 62 3.1 W 57 78 31 42 998.7 - 5.8
30/01:00am 10.5 -1.6 3.3 61 3.2 WNW 56 78 30 42 998.2 998.2 5.8
30/12:30am 10.4 -1.4 4.8 68 2.5 WNW 56 78 30 42 997.5 - 5.8
30/12:28am 10.2 -1.3 4.6 68 2.5 WNW 54 72 29 39 997.5 - 5.8
30/12:00am 9.8 -1.3 6.3 79 1.6 WNW 54 80 29 43 997.2 997.2 5.8
 
Date/Time
EST
Temp
°C
App
Temp
°C
Dew
Point
Rel
Hum
%
Delta-T
°C
Wind Press
QNH
hPa
Press
MSL
hPa
Rain
since 9 am
mm
Dir
 
Spd
km/h
Gust
km/h
Spd
kts
Gust
kts
29/11:54pm 9.9 -0.9 6.2 78 1.7 WNW 52 78 28 42 997.0 - 5.6
29/11:31pm 9.8 -1.8 6.0 77 1.8 WNW 56 74 30 40 996.3 - 5.6
29/11:30pm 9.8 -1.7 6.2 78 1.7 WNW 56 70 30 38 996.2 - 5.6
29/11:02pm 9.8 -2.4 5.4 74 2.0 W 59 83 32 45 996.0 - 5.0
29/11:00pm 10.3 -2.0 5.1 70 2.4 W 59 83 32 45 995.9 995.9 5.0
29/10:30pm 11.1 0.4 4.8 65 2.9 WNW 50 80 27 43 995.7 - 5.0
29/10:00pm 10.8 -0.9 5.1 68 2.6 WNW 56 91 30 49 995.7 995.7 5.0
29/09:30pm 10.1 -1.6 5.1 71 2.3 WNW 56 80 30 43 995.1 - 5.0
29/09:00pm 10.1 -1.6 5.3 72 2.2 WNW 56 76 30 41 995.0 995.0 5.0
29/08:39pm 9.5 -2.0 4.3 70 2.3 WNW 54 74 29 40 994.5 - 5.0
29/08:30pm 9.1 -1.7 5.8 80 1.5 WNW 52 80 28 43 994.1 - 5.0
29/08:20pm 7.9 -4.2 6.2 89 0.8 WNW 59 78 32 42 994.0 - 4.8
29/08:19pm 7.8 -4.7 6.1 89 0.8 WNW 61 78 33 42 994.0 - 4.8
29/08:15pm 9.7 -6.9 6.2 79 1.6 WNW 83 115 45 62 993.6 - 4.0
29/08:14pm 11.1 0.6 5.4 68 2.6 WNW 50 87 27 47 993.5 - 4.0
29/08:11pm 11.5 1.5 6.0 69 2.6 WNW 48 69 26 37 993.4 - 4.0
29/08:01pm 11.5 -0.5 4.5 62 3.2 WNW 57 76 31 41 993.6 - 4.0
29/08:00pm 11.6 -0.8 4.6 62 3.2 WNW 59 85 32 46 993.6 993.6 4.0
29/07:49pm 11.6 0.3 5.5 66 2.8 WNW 54 74 29 40 993.4 - 4.0
29/07:30pm 11.6 -0.1 5.5 66 2.8 WNW 56 80 30 43 993.5 - 4.0
29/07:00pm 11.5 -0.9 4.7 63 3.1 WNW 59 83 32 45 992.8 992.8 4.0
29/06:30pm 11.6 -1.1 5.0 64 3.0 WNW 61 87 33 47 992.1 - 4.0
29/06:01pm 10.6 -1.2 4.9 68 2.6 WNW 56 76 30 41 991.3 - 4.0
29/06:00pm 10.5 -1.2 5.3 70 2.4 WNW 56 72 30 39 991.4 991.4 4.0
29/05:53pm 10.1 -1.6 5.1 71 2.3 WNW 56 74 30 40 991.1 - 4.0
29/05:39pm 9.0 -1.0 6.1 82 1.3 WNW 48 72 26 39 990.7 - 4.0

Other Formats:

Comma delimited format used in spreadsheet applications
http://www.bom.gov.au/fwo/IDT60801/IDT60801.94956.axf

JavaScript Object Notation format (JSON) in row-major order
http://www.bom.gov.au/fwo/IDT60801/IDT60801.94956.json